sensor_id;sensor_type;location;lat;lon;timestamp;pressure;altitude;pressure_sealevel;temperature;humidity
13705;BME280;6924;52.122;9.952;2023-03-01T00:02:00;102097.28;;;-4.06;88.13
13705;BME280;6924;52.122;9.952;2023-03-01T00:04:27;102091.41;;;-4.03;89.13
13705;BME280;6924;52.122;9.952;2023-03-01T00:06:53;102099.69;;;-4.03;88.91
13705;BME280;6924;52.122;9.952;2023-03-01T00:09:19;102089.66;;;-4.04;88.39
13705;BME280;6924;52.122;9.952;2023-03-01T00:11:46;102093.66;;;-4.07;88.48
13705;BME280;6924;52.122;9.952;2023-03-01T00:14:12;102095.88;;;-4.02;88.24
13705;BME280;6924;52.122;9.952;2023-03-01T00:16:41;102093.13;;;-4.02;89.16
13705;BME280;6924;52.122;9.952;2023-03-01T00:19:12;102090.22;;;-4.09;88.47
13705;BME280;6924;52.122;9.952;2023-03-01T00:21:39;102098.00;;;-4.12;88.87
13705;BME280;6924;52.122;9.952;2023-03-01T00:24:05;102096.31;;;-4.22;88.97
13705;BME280;6924;52.122;9.952;2023-03-01T00:26:32;102102.19;;;-4.17;88.73
13705;BME280;6924;52.122;9.952;2023-03-01T00:28:59;102097.31;;;-4.15;89.06
13705;BME280;6924;52.122;9.952;2023-03-01T00:31:27;102103.38;;;-4.19;89.91
13705;BME280;6924;52.122;9.952;2023-03-01T00:33:56;102099.94;;;-4.21;89.45
13705;BME280;6924;52.122;9.952;2023-03-01T00:36:26;102097.91;;;-4.27;89.99
13705;BME280;6924;52.122;9.952;2023-03-01T00:38:53;102095.88;;;-4.33;90.35
13705;BME280;6924;52.122;9.952;2023-03-01T00:41:21;102090.34;;;-4.33;90.48
13705;BME280;6924;52.122;9.952;2023-03-01T00:43:49;102085.50;;;-4.31;90.97
13705;BME280;6924;52.122;9.952;2023-03-01T00:46:18;102078.91;;;-4.30;90.46
13705;BME280;6924;52.122;9.952;2023-03-01T00:48:45;102077.41;;;-4.41;90.61
13705;BME280;6924;52.122;9.952;2023-03-01T00:51:14;102080.53;;;-4.44;90.18
13705;BME280;6924;52.122;9.952;2023-03-01T00:53:43;102074.63;;;-4.41;90.24
13705;BME280;6924;52.122;9.952;2023-03-01T00:56:12;102072.56;;;-4.39;89.96
13705;BME280;6924;52.122;9.952;2023-03-01T00:58:38;102076.72;;;-4.43;90.58
13705;BME280;6924;52.122;9.952;2023-03-01T01:01:09;102075.72;;;-4.50;90.56
13705;BME280;6924;52.122;9.952;2023-03-01T01:03:43;102075.56;;;-4.57;90.50
13705;BME280;6924;52.122;9.952;2023-03-01T01:06:13;102090.22;;;-4.57;90.36
13705;BME280;6924;52.122;9.952;2023-03-01T01:08:40;102088.34;;;-4.56;90.06
13705;BME280;6924;52.122;9.952;2023-03-01T01:11:11;102089.91;;;-4.53;90.09
13705;BME280;6924;52.122;9.952;2023-03-01T01:13:38;102084.22;;;-4.60;90.12
13705;BME280;6924;52.122;9.952;2023-03-01T01:16:05;102079.94;;;-4.63;90.65
13705;BME280;6924;52.122;9.952;2023-03-01T01:18:32;102082.00;;;-4.73;90.82
13705;BME280;6924;52.122;9.952;2023-03-01T01:21:03;102076.34;;;-4.80;90.87
13705;BME280;6924;52.122;9.952;2023-03-01T01:23:29;102080.47;;;-4.75;90.36
13705;BME280;6924;52.122;9.952;2023-03-01T01:25:56;102077.34;;;-4.81;89.89
13705;BME280;6924;52.122;9.952;2023-03-01T01:28:24;102079.97;;;-4.87;90.73
13705;BME280;6924;52.122;9.952;2023-03-01T01:30:50;102072.38;;;-4.85;91.05
13705;BME280;6924;52.122;9.952;2023-03-01T01:33:16;102078.94;;;-4.86;90.56
13705;BME280;6924;52.122;9.952;2023-03-01T01:35:44;102065.50;;;-4.89;91.10
13705;BME280;6924;52.122;9.952;2023-03-01T01:38:11;102056.69;;;-4.85;90.63
13705;BME280;6924;52.122;9.952;2023-03-01T01:40:43;102066.84;;;-4.85;90.28
13705;BME280;6924;52.122;9.952;2023-03-01T01:43:16;102063.75;;;-4.82;90.05
13705;BME280;6924;52.122;9.952;2023-03-01T01:45:45;102063.06;;;-4.84;90.53
13705;BME280;6924;52.122;9.952;2023-03-01T01:48:14;102052.72;;;-4.90;90.48
13705;BME280;6924;52.122;9.952;2023-03-01T01:50:42;102051.03;;;-4.91;90.52
13705;BME280;6924;52.122;9.952;2023-03-01T01:53:11;102048.94;;;-4.89;90.64
13705;BME280;6924;52.122;9.952;2023-03-01T01:55:41;102058.41;;;-4.84;90.09
13705;BME280;6924;52.122;9.952;2023-03-01T01:58:09;102055.81;;;-4.85;90.15
13705;BME280;6924;52.122;9.952;2023-03-01T02:00:37;102053.56;;;-4.90;90.33
13705;BME280;6924;52.122;9.952;2023-03-01T02:03:09;102049.13;;;-4.91;90.26
13705;BME280;6924;52.122;9.952;2023-03-01T02:05:39;102048.75;;;-4.88;89.92
13705;BME280;6924;52.122;9.952;2023-03-01T02:08:11;102046.53;;;-4.92;90.17
13705;BME280;6924;52.122;9.952;2023-03-01T02:10:39;102048.28;;;-5.00;89.70
13705;BME280;6924;52.122;9.952;2023-03-01T02:13:07;102046.91;;;-5.12;90.24
13705;BME280;6924;52.122;9.952;2023-03-01T02:15:35;102039.16;;;-5.08;89.92
13705;BME280;6924;52.122;9.952;2023-03-01T02:18:05;102038.63;;;-5.12;89.85
13705;BME280;6924;52.122;9.952;2023-03-01T02:20:37;102041.59;;;-5.13;90.00
13705;BME280;6924;52.122;9.952;2023-03-01T02:23:06;102025.72;;;-5.20;90.45
13705;BME280;6924;52.122;9.952;2023-03-01T02:25:39;102034.84;;;-5.27;89.79
13705;BME280;6924;52.122;9.952;2023-03-01T02:30:39;102013.84;;;-5.28;90.85
13705;BME280;6924;52.122;9.952;2023-03-01T02:33:26;102019.03;;;-5.33;90.58
13705;BME280;6924;52.122;9.952;2023-03-01T02:35:53;102022.28;;;-5.30;90.79
13705;BME280;6924;52.122;9.952;2023-03-01T02:38:20;102022.28;;;-5.30;90.40
13705;BME280;6924;52.122;9.952;2023-03-01T02:40:50;102024.19;;;-5.30;90.29
13705;BME280;6924;52.122;9.952;2023-03-01T02:43:18;102022.28;;;-5.30;90.10
13705;BME280;6924;52.122;9.952;2023-03-01T02:45:50;102017.28;;;-5.34;90.62
13705;BME280;6924;52.122;9.952;2023-03-01T02:48:16;102010.41;;;-5.30;90.51
13705;BME280;6924;52.122;9.952;2023-03-01T02:50:55;102012.13;;;-5.37;90.47
13705;BME280;6924;52.122;9.952;2023-03-01T02:53:35;102007.84;;;-5.40;90.64
13705;BME280;6924;52.122;9.952;2023-03-01T02:56:05;102001.28;;;-5.47;91.19
13705;BME280;6924;52.122;9.952;2023-03-01T02:58:38;102008.53;;;-5.54;90.52
13705;BME280;6924;52.122;9.952;2023-03-01T03:01:11;102013.19;;;-5.63;91.13
13705;BME280;6924;52.122;9.952;2023-03-01T03:03:38;102011.63;;;-5.74;91.05
13705;BME280;6924;52.122;9.952;2023-03-01T03:06:05;102006.28;;;-5.67;91.02
13705;BME280;6924;52.122;9.952;2023-03-01T03:08:31;101994.94;;;-5.64;91.00
13705;BME280;6924;52.122;9.952;2023-03-01T03:10:58;101987.84;;;-5.58;90.54
13705;BME280;6924;52.122;9.952;2023-03-01T03:13:24;101987.19;;;-5.69;90.63
13705;BME280;6924;52.122;9.952;2023-03-01T03:15:54;101979.41;;;-5.65;90.62
13705;BME280;6924;52.122;9.952;2023-03-01T03:18:22;101983.53;;;-5.61;90.40
13705;BME280;6924;52.122;9.952;2023-03-01T03:20:51;101980.63;;;-5.76;90.48
13705;BME280;6924;52.122;9.952;2023-03-01T03:23:19;101989.75;;;-5.84;90.38
13705;BME280;6924;52.122;9.952;2023-03-01T03:25:47;101994.06;;;-5.73;90.65
13705;BME280;6924;52.122;9.952;2023-03-01T03:28:14;101998.69;;;-5.65;90.65
13705;BME280;6924;52.122;9.952;2023-03-01T03:30:43;102005.25;;;-5.66;90.86
13705;BME280;6924;52.122;9.952;2023-03-01T03:33:10;101997.00;;;-5.66;90.70
13705;BME280;6924;52.122;9.952;2023-03-01T03:35:41;102005.09;;;-5.73;90.57
13705;BME280;6924;52.122;9.952;2023-03-01T03:38:09;102005.94;;;-5.81;91.45
13705;BME280;6924;52.122;9.952;2023-03-01T03:40:42;102004.91;;;-5.88;91.47
13705;BME280;6924;52.122;9.952;2023-03-01T03:43:10;102005.78;;;-5.95;92.28
13705;BME280;6924;52.122;9.952;2023-03-01T03:45:37;102000.09;;;-5.86;92.70
13705;BME280;6924;52.122;9.952;2023-03-01T03:48:06;101997.50;;;-5.79;91.98
13705;BME280;6924;52.122;9.952;2023-03-01T03:50:34;101991.84;;;-5.77;91.88
13705;BME280;6924;52.122;9.952;2023-03-01T03:53:04;101987.34;;;-5.78;91.59
13705;BME280;6924;52.122;9.952;2023-03-01T03:55:31;101995.94;;;-5.73;91.37
13705;BME280;6924;52.122;9.952;2023-03-01T03:58:00;101982.50;;;-5.76;91.49
13705;BME280;6924;52.122;9.952;2023-03-01T04:00:32;101991.13;;;-5.79;91.10
13705;BME280;6924;52.122;9.952;2023-03-01T04:02:59;101994.75;;;-5.79;90.74
13705;BME280;6924;52.122;9.952;2023-03-01T04:05:26;101996.97;;;-5.83;91.02
13705;BME280;6924;52.122;9.952;2023-03-01T04:07:53;101990.78;;;-5.85;90.97
13705;BME280;6924;52.122;9.952;2023-03-01T04:10:28;101987.69;;;-5.90;90.94
13705;BME280;6924;52.122;9.952;2023-03-01T04:12:55;101988.22;;;-5.94;91.01
13705;BME280;6924;52.122;9.952;2023-03-01T04:15:23;101997.16;;;-5.92;91.08
13705;BME280;6924;52.122;9.952;2023-03-01T04:17:51;101992.53;;;-6.00;91.50
13705;BME280;6924;52.122;9.952;2023-03-01T04:20:19;101987.69;;;-6.14;92.05
13705;BME280;6924;52.122;9.952;2023-03-01T04:22:50;101995.28;;;-6.08;92.09
13705;BME280;6924;52.122;9.952;2023-03-01T04:25:17;101997.53;;;-6.04;91.97
13705;BME280;6924;52.122;9.952;2023-03-01T04:27:45;101995.59;;;-6.11;91.53
13705;BME280;6924;52.122;9.952;2023-03-01T04:30:12;101999.22;;;-6.11;92.34
13705;BME280;6924;52.122;9.952;2023-03-01T04:32:38;101992.84;;;-6.11;92.50
13705;BME280;6924;52.122;9.952;2023-03-01T04:35:05;102000.94;;;-6.18;92.40
13705;BME280;6924;52.122;9.952;2023-03-01T04:37:31;102007.47;;;-6.27;92.42
13705;BME280;6924;52.122;9.952;2023-03-01T04:39:58;101997.31;;;-6.18;92.67
13705;BME280;6924;52.122;9.952;2023-03-01T04:42:24;101997.84;;;-6.23;92.64
13705;BME280;6924;52.122;9.952;2023-03-01T04:44:53;101995.94;;;-6.22;92.47
13705;BME280;6924;52.122;9.952;2023-03-01T04:47:19;101994.75;;;-6.28;92.50
13705;BME280;6924;52.122;9.952;2023-03-01T04:49:45;101996.09;;;-6.24;92.22
13705;BME280;6924;52.122;9.952;2023-03-01T04:52:12;101992.66;;;-6.26;92.12
13705;BME280;6924;52.122;9.952;2023-03-01T04:54:38;102003.84;;;-6.28;92.00
13705;BME280;6924;52.122;9.952;2023-03-01T04:57:05;101993.66;;;-6.35;92.02
13705;BME280;6924;52.122;9.952;2023-03-01T04:59:31;102000.41;;;-6.30;92.37
13705;BME280;6924;52.122;9.952;2023-03-01T05:01:59;101986.63;;;-6.30;91.93
13705;BME280;6924;52.122;9.952;2023-03-01T05:04:26;101992.66;;;-6.34;92.01
13705;BME280;6924;52.122;9.952;2023-03-01T05:06:53;101988.69;;;-6.32;92.16
13705;BME280;6924;52.122;9.952;2023-03-01T05:09:21;101994.72;;;-6.36;91.96
13705;BME280;6924;52.122;9.952;2023-03-01T05:11:47;101989.56;;;-6.31;91.96
13705;BME280;6924;52.122;9.952;2023-03-01T05:14:13;101995.19;;;-6.49;91.72
13705;BME280;6924;52.122;9.952;2023-03-01T05:16:40;101993.47;;;-6.42;92.30
13705;BME280;6924;52.122;9.952;2023-03-01T05:19:08;101977.84;;;-6.33;92.04
13705;BME280;6924;52.122;9.952;2023-03-01T05:21:40;101985.25;;;-6.34;92.12
13705;BME280;6924;52.122;9.952;2023-03-01T05:24:21;101988.53;;;-6.30;92.72
13705;BME280;6924;52.122;9.952;2023-03-01T05:26:47;101987.84;;;-6.24;92.79
13705;BME280;6924;52.122;9.952;2023-03-01T05:29:13;101984.22;;;-6.25;93.43
13705;BME280;6924;52.122;9.952;2023-03-01T05:31:40;101973.22;;;-6.25;93.42
13705;BME280;6924;52.122;9.952;2023-03-01T05:34:07;101982.34;;;-6.32;93.24
13705;BME280;6924;52.122;9.952;2023-03-01T05:36:34;101983.34;;;-6.33;93.58
13705;BME280;6924;52.122;9.952;2023-03-01T05:39:00;101983.69;;;-6.36;93.85
13705;BME280;6924;52.122;9.952;2023-03-01T05:41:27;101977.34;;;-6.29;93.42
13705;BME280;6924;52.122;9.952;2023-03-01T05:43:53;101979.38;;;-6.31;93.40
13705;BME280;6924;52.122;9.952;2023-03-01T05:46:20;101984.59;;;-6.28;93.81
13705;BME280;6924;52.122;9.952;2023-03-01T05:48:48;101985.97;;;-6.24;93.26
13705;BME280;6924;52.122;9.952;2023-03-01T05:51:16;101984.22;;;-6.25;92.83
13705;BME280;6924;52.122;9.952;2023-03-01T05:53:42;101985.63;;;-6.20;92.92
13705;BME280;6924;52.122;9.952;2023-03-01T05:56:09;101981.16;;;-6.21;92.68
13705;BME280;6924;52.122;9.952;2023-03-01T05:58:36;101979.94;;;-6.27;92.87
13705;BME280;6924;52.122;9.952;2023-03-01T06:01:04;101984.03;;;-6.31;92.85
13705;BME280;6924;52.122;9.952;2023-03-01T06:03:30;101977.69;;;-6.32;92.30
13705;BME280;6924;52.122;9.952;2023-03-01T06:05:57;101979.59;;;-6.32;92.20
13705;BME280;6924;52.122;9.952;2023-03-01T06:08:25;101985.75;;;-6.38;92.28
13705;BME280;6924;52.122;9.952;2023-03-01T06:10:52;101979.91;;;-6.43;92.66
13705;BME280;6924;52.122;9.952;2023-03-01T06:13:18;101979.91;;;-6.43;92.44
13705;BME280;6924;52.122;9.952;2023-03-01T06:15:45;101983.00;;;-6.38;92.37
13705;BME280;6924;52.122;9.952;2023-03-01T06:18:11;101978.50;;;-6.48;92.25
13705;BME280;6924;52.122;9.952;2023-03-01T06:20:38;101979.00;;;-6.44;92.33
13705;BME280;6924;52.122;9.952;2023-03-01T06:23:04;101985.41;;;-6.43;92.91
13705;BME280;6924;52.122;9.952;2023-03-01T06:25:32;101978.34;;;-6.38;92.54
13705;BME280;6924;52.122;9.952;2023-03-01T06:27:58;101969.41;;;-6.40;92.76
13705;BME280;6924;52.122;9.952;2023-03-01T06:30:26;101980.06;;;-6.45;92.62
13705;BME280;6924;52.122;9.952;2023-03-01T06:32:53;101973.88;;;-6.39;93.36
13705;BME280;6924;52.122;9.952;2023-03-01T06:35:26;101975.59;;;-6.38;93.73
13705;BME280;6924;52.122;9.952;2023-03-01T06:37:55;101976.81;;;-6.32;93.72
13705;BME280;6924;52.122;9.952;2023-03-01T06:40:22;101978.03;;;-6.27;93.83
13705;BME280;6924;52.122;9.952;2023-03-01T06:42:50;101980.78;;;-6.27;94.15
13705;BME280;6924;52.122;9.952;2023-03-01T06:45:18;101977.34;;;-6.20;94.60
13705;BME280;6924;52.122;9.952;2023-03-01T06:47:45;101979.63;;;-6.08;94.82
13705;BME280;6924;52.122;9.952;2023-03-01T06:50:13;101988.91;;;-6.00;95.15
13705;BME280;6924;52.122;9.952;2023-03-01T06:52:40;101981.47;;;-5.92;95.72
13705;BME280;6924;52.122;9.952;2023-03-01T06:55:07;101976.66;;;-5.82;96.30
13705;BME280;6924;52.122;9.952;2023-03-01T06:57:33;101982.00;;;-5.72;96.75
13705;BME280;6924;52.122;9.952;2023-03-01T07:00:01;101980.78;;;-5.61;97.55
13705;BME280;6924;52.122;9.952;2023-03-01T07:02:28;101972.84;;;-5.56;97.66
13705;BME280;6924;52.122;9.952;2023-03-01T07:04:54;101974.22;;;-5.44;98.42
13705;BME280;6924;52.122;9.952;2023-03-01T07:07:21;101977.66;;;-5.33;98.89
13705;BME280;6924;52.122;9.952;2023-03-01T07:09:48;101974.31;;;-5.21;99.79
13705;BME280;6924;52.122;9.952;2023-03-01T07:12:15;101972.06;;;-5.09;99.80
13705;BME280;6924;52.122;9.952;2023-03-01T07:14:43;101971.16;;;-5.01;100.00
13705;BME280;6924;52.122;9.952;2023-03-01T07:17:11;101976.31;;;-4.90;99.98
13705;BME280;6924;52.122;9.952;2023-03-01T07:19:37;101963.00;;;-4.86;99.64
13705;BME280;6924;52.122;9.952;2023-03-01T07:22:04;101957.09;;;-4.75;100.00
13705;BME280;6924;52.122;9.952;2023-03-01T07:24:32;101961.19;;;-4.63;99.83
13705;BME280;6924;52.122;9.952;2023-03-01T07:26:59;101960.94;;;-4.53;100.00
13705;BME280;6924;52.122;9.952;2023-03-01T07:29:25;101963.84;;;-4.46;99.21
13705;BME280;6924;52.122;9.952;2023-03-01T07:31:53;101959.84;;;-4.44;98.99
13705;BME280;6924;52.122;9.952;2023-03-01T07:34:21;101947.03;;;-4.37;99.69
13705;BME280;6924;52.122;9.952;2023-03-01T07:36:47;101942.81;;;-4.24;99.96
13705;BME280;6924;52.122;9.952;2023-03-01T07:39:14;101943.63;;;-4.16;100.00
13705;BME280;6924;52.122;9.952;2023-03-01T07:41:41;101940.41;;;-4.04;99.95
13705;BME280;6924;52.122;9.952;2023-03-01T07:44:07;101934.66;;;-3.95;100.00
13705;BME280;6924;52.122;9.952;2023-03-01T07:46:34;101939.91;;;-3.85;99.61
13705;BME280;6924;52.122;9.952;2023-03-01T07:49:00;101943.31;;;-3.75;99.37
13705;BME280;6924;52.122;9.952;2023-03-01T07:51:28;101935.78;;;-3.66;98.07
13705;BME280;6924;52.122;9.952;2023-03-01T07:53:54;101942.28;;;-3.59;98.05
13705;BME280;6924;52.122;9.952;2023-03-01T07:56:21;101930.25;;;-3.51;98.26
13705;BME280;6924;52.122;9.952;2023-03-01T07:58:47;101934.97;;;-3.37;98.19
13705;BME280;6924;52.122;9.952;2023-03-01T08:01:16;101937.84;;;-3.30;98.14
13705;BME280;6924;52.122;9.952;2023-03-01T08:03:43;101938.22;;;-3.18;97.55
13705;BME280;6924;52.122;9.952;2023-03-01T08:06:11;101940.41;;;-3.14;97.57
13705;BME280;6924;52.122;9.952;2023-03-01T08:08:39;101944.44;;;-3.01;97.42
13705;BME280;6924;52.122;9.952;2023-03-01T08:11:06;101948.41;;;-2.89;96.86
13705;BME280;6924;52.122;9.952;2023-03-01T08:13:33;101945.81;;;-2.76;96.66
13705;BME280;6924;52.122;9.952;2023-03-01T08:16:01;101938.94;;;-2.65;96.30
13705;BME280;6924;52.122;9.952;2023-03-01T08:18:28;101930.78;;;-2.52;96.03
13705;BME280;6924;52.122;9.952;2023-03-01T08:20:54;101938.13;;;-2.44;95.79
13705;BME280;6924;52.122;9.952;2023-03-01T08:23:20;101935.72;;;-2.32;95.74
13705;BME280;6924;52.122;9.952;2023-03-01T08:25:48;101935.72;;;-2.32;94.74
13705;BME280;6924;52.122;9.952;2023-03-01T08:28:14;101941.09;;;-2.45;94.30
13705;BME280;6924;52.122;9.952;2023-03-01T08:30:41;101935.44;;;-2.37;94.87
13705;BME280;6924;52.122;9.952;2023-03-01T08:33:07;101933.16;;;-2.12;95.44
13705;BME280;6924;52.122;9.952;2023-03-01T08:35:33;101931.44;;;-1.92;94.14
13705;BME280;6924;52.122;9.952;2023-03-01T08:38:00;101917.09;;;-1.74;93.43
13705;BME280;6924;52.122;9.952;2023-03-01T08:40:26;101918.31;;;-1.55;93.41
13705;BME280;6924;52.122;9.952;2023-03-01T08:42:54;101916.09;;;-1.38;92.64
13705;BME280;6924;52.122;9.952;2023-03-01T08:45:20;101915.75;;;-1.21;92.08
13705;BME280;6924;52.122;9.952;2023-03-01T08:47:47;101920.34;;;-1.07;91.36
13705;BME280;6924;52.122;9.952;2023-03-01T08:50:13;101924.06;;;-0.93;90.31
13705;BME280;6924;52.122;9.952;2023-03-01T08:52:40;101923.69;;;-0.84;90.07
13705;BME280;6924;52.122;9.952;2023-03-01T08:55:07;101920.53;;;-0.74;89.68
13705;BME280;6924;52.122;9.952;2023-03-01T08:57:34;101922.72;;;-0.56;88.71
13705;BME280;6924;52.122;9.952;2023-03-01T09:00:02;101921.25;;;-1.00;83.22
13705;BME280;6924;52.122;9.952;2023-03-01T09:02:33;101926.66;;;-0.85;83.99
13705;BME280;6924;52.122;9.952;2023-03-01T09:04:59;101924.63;;;-0.63;84.34
13705;BME280;6924;52.122;9.952;2023-03-01T09:07:26;101917.69;;;-0.32;84.02
13705;BME280;6924;52.122;9.952;2023-03-01T09:09:53;101920.97;;;-0.09;84.28
13705;BME280;6924;52.122;9.952;2023-03-01T09:12:20;101915.00;;;0.14;83.24
13705;BME280;6924;52.122;9.952;2023-03-01T09:14:46;101905.59;;;0.29;82.14
13705;BME280;6924;52.122;9.952;2023-03-01T09:17:14;101917.97;;;0.26;79.04
13705;BME280;6924;52.122;9.952;2023-03-01T09:19:41;101915.19;;;0.13;78.60
13705;BME280;6924;52.122;9.952;2023-03-01T09:22:07;101918.41;;;0.10;79.08
13705;BME280;6924;52.122;9.952;2023-03-01T09:24:33;101918.22;;;0.18;78.92
13705;BME280;6924;52.122;9.952;2023-03-01T09:27:00;101910.06;;;0.50;79.51
13705;BME280;6924;52.122;9.952;2023-03-01T09:29:26;101904.66;;;0.75;79.09
13705;BME280;6924;52.122;9.952;2023-03-01T09:31:53;101904.28;;;0.71;77.96
13705;BME280;6924;52.122;9.952;2023-03-01T09:34:21;101899.38;;;0.60;75.83
13705;BME280;6924;52.122;9.952;2023-03-01T09:36:49;101899.72;;;0.83;75.80
13705;BME280;6924;52.122;9.952;2023-03-01T09:39:16;101899.66;;;1.10;75.96
13705;BME280;6924;52.122;9.952;2023-03-01T09:41:47;101899.63;;;1.23;73.60
13705;BME280;6924;52.122;9.952;2023-03-01T09:44:22;101896.84;;;1.23;73.67
13705;BME280;6924;52.122;9.952;2023-03-01T09:46:52;101881.41;;;1.21;73.11
13705;BME280;6924;52.122;9.952;2023-03-01T09:49:23;101882.50;;;1.58;75.03
13705;BME280;6924;52.122;9.952;2023-03-01T09:51:56;101883.63;;;1.89;74.94
13705;BME280;6924;52.122;9.952;2023-03-01T09:54:23;101881.94;;;2.13;72.53
13705;BME280;6924;52.122;9.952;2023-03-01T09:56:59;101876.94;;;2.22;70.66
13705;BME280;6924;52.122;9.952;2023-03-01T09:59:36;101872.72;;;2.38;70.60
13705;BME280;6924;52.122;9.952;2023-03-01T10:02:21;101869.81;;;2.51;69.44
13705;BME280;6924;52.122;9.952;2023-03-01T10:04:52;101873.69;;;2.50;67.27
13705;BME280;6924;52.122;9.952;2023-03-01T10:07:27;101866.44;;;2.86;67.80
13705;BME280;6924;52.122;9.952;2023-03-01T10:09:58;101865.22;;;3.00;68.53
13705;BME280;6924;52.122;9.952;2023-03-01T10:12:27;101869.03;;;3.24;67.16
13705;BME280;6924;52.122;9.952;2023-03-01T10:15:01;101873.97;;;3.41;64.45
13705;BME280;6924;52.122;9.952;2023-03-01T10:17:34;101864.59;;;3.17;63.22
13705;BME280;6924;52.122;9.952;2023-03-01T10:20:19;101865.81;;;3.39;65.35
13705;BME280;6924;52.122;9.952;2023-03-01T10:22:46;101862.63;;;3.36;64.32
13705;BME280;6924;52.122;9.952;2023-03-01T10:25:17;101862.41;;;3.19;64.24
13705;BME280;6924;52.122;9.952;2023-03-01T10:27:51;101860.69;;;2.99;63.77
13705;BME280;6924;52.122;9.952;2023-03-01T10:30:22;101867.44;;;3.28;64.44
13705;BME280;6924;52.122;9.952;2023-03-01T10:32:51;101864.78;;;3.52;65.22
13705;BME280;6924;52.122;9.952;2023-03-01T10:35:22;101860.75;;;3.78;65.62
13705;BME280;6924;52.122;9.952;2023-03-01T10:38:02;101861.41;;;3.92;63.47
13705;BME280;6924;52.122;9.952;2023-03-01T10:40:29;101857.53;;;3.93;59.78
13705;BME280;6924;52.122;9.952;2023-03-01T10:42:58;101860.22;;;4.00;60.53
13705;BME280;6924;52.122;9.952;2023-03-01T10:45:32;101862.63;;;3.66;58.83
13705;BME280;6924;52.122;9.952;2023-03-01T10:48:11;101852.84;;;3.45;60.60
13705;BME280;6924;52.122;9.952;2023-03-01T10:50:41;101852.03;;;3.56;59.01
13705;BME280;6924;52.122;9.952;2023-03-01T10:53:21;101846.97;;;3.77;58.83
13705;BME280;6924;52.122;9.952;2023-03-01T10:55:56;101844.16;;;3.65;59.04
13705;BME280;6924;52.122;9.952;2023-03-01T10:58:23;101852.03;;;3.86;60.76
13705;BME280;6924;52.122;9.952;2023-03-01T11:00:52;101846.72;;;3.66;61.50
13705;BME280;6924;52.122;9.952;2023-03-01T11:03:21;101853.34;;;3.54;61.81
13705;BME280;6924;52.122;9.952;2023-03-01T11:06:04;101853.66;;;3.64;59.99
13705;BME280;6924;52.122;9.952;2023-03-01T11:08:39;101848.50;;;3.61;58.66
13705;BME280;6924;52.122;9.952;2023-03-01T11:11:24;101849.88;;;3.70;58.89
13705;BME280;6924;52.122;9.952;2023-03-01T11:13:54;101844.69;;;3.73;59.93
13705;BME280;6924;52.122;9.952;2023-03-01T11:16:40;101844.09;;;3.83;59.87
13705;BME280;6924;52.122;9.952;2023-03-01T11:19:17;101841.75;;;4.10;60.59
13705;BME280;6924;52.122;9.952;2023-03-01T11:21:52;101839.19;;;4.21;57.87
13705;BME280;6924;52.122;9.952;2023-03-01T11:24:26;101838.03;;;3.98;57.93
13705;BME280;6924;52.122;9.952;2023-03-01T11:26:54;101817.97;;;4.01;59.69
13705;BME280;6924;52.122;9.952;2023-03-01T11:29:27;101830.38;;;4.05;59.38
13705;BME280;6924;52.122;9.952;2023-03-01T11:31:59;101824.22;;;4.15;59.56
13705;BME280;6924;52.122;9.952;2023-03-01T11:34:36;101829.47;;;4.47;54.74
13705;BME280;6924;52.122;9.952;2023-03-01T11:37:12;101819.34;;;4.22;54.45
13705;BME280;6924;52.122;9.952;2023-03-01T11:39:47;101823.00;;;4.23;53.95
13705;BME280;6924;52.122;9.952;2023-03-01T11:42:18;101825.56;;;4.36;53.74
13705;BME280;6924;52.122;9.952;2023-03-01T11:44:48;101826.28;;;4.20;54.29
13705;BME280;6924;52.122;9.952;2023-03-01T11:47:26;101822.03;;;4.17;54.00
13705;BME280;6924;52.122;9.952;2023-03-01T11:50:05;101810.31;;;4.08;54.38
13705;BME280;6924;52.122;9.952;2023-03-01T11:52:42;101817.66;;;4.21;54.55
13705;BME280;6924;52.122;9.952;2023-03-01T11:55:25;101816.06;;;4.37;54.78
13705;BME280;6924;52.122;9.952;2023-03-01T11:58:09;101809.75;;;4.42;54.05
13705;BME280;6924;52.122;9.952;2023-03-01T12:00:59;101804.13;;;4.42;53.03
13705;BME280;6924;52.122;9.952;2023-03-01T12:03:35;101807.78;;;4.42;54.60
13705;BME280;6924;52.122;9.952;2023-03-01T12:06:15;101802.06;;;4.37;54.47
13705;BME280;6924;52.122;9.952;2023-03-01T12:08:57;101807.66;;;4.37;53.97
13705;BME280;6924;52.122;9.952;2023-03-01T12:11:36;101795.75;;;4.30;52.68
13705;BME280;6924;52.122;9.952;2023-03-01T12:14:28;101795.81;;;4.11;54.47
13705;BME280;6924;52.122;9.952;2023-03-01T12:17:19;101793.91;;;4.35;55.56
13705;BME280;6924;52.122;9.952;2023-03-01T12:20:03;101787.56;;;4.40;53.50
13705;BME280;6924;52.122;9.952;2023-03-01T12:22:43;101792.91;;;4.18;52.59
13705;BME280;6924;52.122;9.952;2023-03-01T12:25:32;101785.69;;;3.87;53.64
13705;BME280;6924;52.122;9.952;2023-03-01T12:28:19;101777.69;;;3.90;54.49
13705;BME280;6924;52.122;9.952;2023-03-01T12:31:01;101768.44;;;4.02;54.96
13705;BME280;6924;52.122;9.952;2023-03-01T12:33:39;101767.72;;;4.18;54.33
13705;BME280;6924;52.122;9.952;2023-03-01T12:39:28;101762.13;;;4.06;52.89
13705;BME280;6924;52.122;9.952;2023-03-01T12:42:04;101761.88;;;4.08;53.45
13705;BME280;6924;52.122;9.952;2023-03-01T12:44:49;101747.50;;;4.04;53.04
13705;BME280;6924;52.122;9.952;2023-03-01T12:47:30;101754.56;;;4.19;52.94
13705;BME280;6924;52.122;9.952;2023-03-01T12:50:04;101754.94;;;4.10;53.82
13705;BME280;6924;52.122;9.952;2023-03-01T12:52:39;101737.00;;;4.23;53.50
13705;BME280;6924;52.122;9.952;2023-03-01T12:55:19;101734.13;;;4.30;51.94
13705;BME280;6924;52.122;9.952;2023-03-01T12:57:57;101733.72;;;4.38;52.12
13705;BME280;6924;52.122;9.952;2023-03-01T13:00:30;101724.25;;;4.39;53.74
13705;BME280;6924;52.122;9.952;2023-03-01T13:03:04;101721.44;;;4.39;53.47
13705;BME280;6924;52.122;9.952;2023-03-01T13:05:42;101723.13;;;4.40;53.74
13705;BME280;6924;52.122;9.952;2023-03-01T13:08:17;101714.38;;;4.37;53.22
13705;BME280;6924;52.122;9.952;2023-03-01T13:10:48;101710.97;;;4.34;53.35
13705;BME280;6924;52.122;9.952;2023-03-01T13:13:22;101714.00;;;4.33;52.32
13705;BME280;6924;52.122;9.952;2023-03-01T13:15:49;101709.75;;;4.19;52.70
13705;BME280;6924;52.122;9.952;2023-03-01T13:18:31;101706.34;;;4.05;52.05
13705;BME280;6924;52.122;9.952;2023-03-01T13:21:00;101699.28;;;4.02;52.28
13705;BME280;6924;52.122;9.952;2023-03-01T13:23:30;101696.97;;;4.11;53.94